Time,TemperatureF,DewpointF,PressureIn,WindDirection,WindDirectionDegrees,WindSpeedMPH,WindSpeedGustMPH,Humidity,HourlyPrecipIn,Conditions,Clouds,dailyrainin,SoftwareType,DateUTC
2013-04-04 00:00:00,45.0,-99.9,-100.00,North,-999,-999.0,-999.0,-999,0.00,,,0.00,,2013-04-04 07:00:00,
2013-04-04 00:32:00,45.0,-99.9,-100.00,North,-999,-999.0,-999.0,-999,0.00,,,0.00,,2013-04-04 07:32:00,
2013-04-04 00:44:00,45.0,-99.9,-100.00,North,-999,-999.0,-999.0,-999,0.00,,,0.00,,2013-04-04 07:44:00,
2013-04-04 00:53:00,45.0,-99.9,-100.00,North,-999,-999.0,-999.0,-999,0.00,,,0.00,,2013-04-04 07:53:00,
2013-04-04 02:00:00,51.0,-99.9,-100.00,North,-999,-999.0,-999.0,-999,0.00,,,0.00,,2013-04-04 09:00:00,
2013-04-04 02:34:00,51.0,-99.9,-100.00,North,-999,-999.0,-999.0,-999,0.00,,,0.00,,2013-04-04 09:34:00,
2013-04-04 02:44:00,51.0,-99.9,-100.00,North,-999,-999.0,-999.0,-999,0.00,,,0.00,,2013-04-04 09:44:00,
2013-04-04 02:54:00,51.0,-99.9,-100.00,North,-999,-999.0,-999.0,-999,0.00,,,0.00,,2013-04-04 09:54:00,
2013-04-04 05:00:00,47.0,-99.9,-100.00,North,-999,-999.0,-999.0,-999,0.00,,,0.00,,2013-04-04 12:00:00,
2013-04-04 05:33:00,47.0,-99.9,-100.00,North,-999,-999.0,-999.0,-999,0.00,,,0.00,,2013-04-04 12:33:00,
2013-04-04 05:44:00,47.0,-99.9,-100.00,North,-999,-999.0,-999.0,-999,0.00,,,0.00,,2013-04-04 12:44:00,
2013-04-04 05:53:00,47.0,-99.9,-100.00,North,-999,-999.0,-999.0,-999,0.00,,,0.00,,2013-04-04 12:53:00,
2013-04-04 06:00:00,50.0,-99.9,-100.00,North,-999,-999.0,-999.0,-999,0.00,,,0.00,,2013-04-04 13:00:00,
2013-04-04 06:33:00,50.0,-99.9,-100.00,North,-999,-999.0,-999.0,-999,0.00,,,0.00,,2013-04-04 13:33:00,
2013-04-04 06:43:00,50.0,-99.9,-100.00,North,-999,-999.0,-999.0,-999,0.00,,,0.00,,2013-04-04 13:43:00,
2013-04-04 06:53:00,50.0,-99.9,-100.00,North,-999,-999.0,-999.0,-999,0.00,,,0.00,,2013-04-04 13:53:00,
2013-04-04 07:00:00,50.0,-99.9,-100.00,North,-999,-999.0,-999.0,-999,0.00,,,0.00,,2013-04-04 14:00:00,
2013-04-04 07:33:00,50.0,-99.9,-100.00,North,-999,-999.0,-999.0,-999,0.00,,,0.00,,2013-04-04 14:33:00,
2013-04-04 07:43:00,50.0,-99.9,-100.00,North,-999,-999.0,-999.0,-999,0.00,,,0.00,,2013-04-04 14:43:00,
2013-04-04 07:53:00,50.0,-99.9,-100.00,North,-999,-999.0,-999.0,-999,0.00,,,0.00,,2013-04-04 14:53:00,
2013-04-04 08:00:00,53.0,-99.9,-100.00,North,-999,-999.0,-999.0,-999,0.00,,,0.00,,2013-04-04 15:00:00,
2013-04-04 08:34:00,53.0,-99.9,-100.00,North,-999,-999.0,-999.0,-999,0.00,,,0.00,,2013-04-04 15:34:00,
2013-04-04 08:44:00,53.0,-99.9,-100.00,North,-999,-999.0,-999.0,-999,0.00,,,0.00,,2013-04-04 15:44:00,
2013-04-04 08:54:00,53.0,-99.9,-100.00,North,-999,-999.0,-999.0,-999,0.00,,,0.00,,2013-04-04 15:54:00,
2013-04-04 09:00:00,54.0,-99.9,-100.00,North,-999,-999.0,-999.0,-999,0.00,,,0.00,,2013-04-04 16:00:00,
2013-04-04 09:33:00,54.0,-99.9,-100.00,North,-999,-999.0,-999.0,-999,0.00,,,0.00,,2013-04-04 16:33:00,
2013-04-04 09:43:00,54.0,-99.9,-100.00,North,-999,-999.0,-999.0,-999,0.00,,,0.00,,2013-04-04 16:43:00,
2013-04-04 09:55:00,54.0,-99.9,-100.00,North,-999,-999.0,-999.0,-999,0.00,,,0.00,,2013-04-04 16:55:00,
2013-04-04 10:00:00,56.0,-99.9,-100.00,North,-999,-999.0,-999.0,-999,0.00,,,0.00,,2013-04-04 17:00:00,
2013-04-04 10:34:00,56.0,-99.9,-100.00,North,-999,-999.0,-999.0,-999,0.00,,,0.00,,2013-04-04 17:34:00,
2013-04-04 10:43:00,56.0,-99.9,-100.00,North,-999,-999.0,-999.0,-999,0.00,,,0.00,,2013-04-04 17:43:00,
2013-04-04 10:53:00,56.0,-99.9,-100.00,North,-999,-999.0,-999.0,-999,0.00,,,0.00,,2013-04-04 17:53:00,
2013-04-04 11:00:00,49.0,-99.9,-100.00,North,-999,-999.0,-999.0,-999,0.00,,,0.00,,2013-04-04 18:00:00,
2013-04-04 11:33:00,49.0,-99.9,-100.00,North,-999,-999.0,-999.0,-999,0.00,,,0.00,,2013-04-04 18:33:00,
2013-04-04 11:43:00,49.0,-99.9,-100.00,North,-999,-999.0,-999.0,-999,0.00,,,0.00,,2013-04-04 18:43:00,
2013-04-04 11:53:00,49.0,-99.9,-100.00,North,-999,-999.0,-999.0,-999,0.00,,,0.00,,2013-04-04 18:53:00,
2013-04-04 12:00:00,50.0,-99.9,-100.00,North,-999,-999.0,-999.0,-999,0.06,,,0.06,,2013-04-04 19:00:00,
2013-04-04 12:33:00,50.0,-99.9,-100.00,North,-999,-999.0,-999.0,-999,0.06,,,0.06,,2013-04-04 19:33:00,
2013-04-04 12:43:00,50.0,-99.9,-100.00,North,-999,-999.0,-999.0,-999,0.06,,,0.06,,2013-04-04 19:43:00,
2013-04-04 12:53:00,50.0,-99.9,-100.00,North,-999,-999.0,-999.0,-999,0.06,,,0.06,,2013-04-04 19:53:00,
2013-04-04 13:00:00,55.0,-99.9,-100.00,North,-999,-999.0,-999.0,-999,0.00,,,0.06,,2013-04-04 20:00:00,
2013-04-04 13:33:00,55.0,-99.9,-100.00,North,-999,-999.0,-999.0,-999,0.00,,,0.06,,2013-04-04 20:33:00,
2013-04-04 13:42:00,55.0,-99.9,-100.00,North,-999,-999.0,-999.0,-999,0.00,,,0.06,,2013-04-04 20:42:00,
2013-04-04 13:53:00,55.0,-99.9,-100.00,North,-999,-999.0,-999.0,-999,0.00,,,0.06,,2013-04-04 20:53:00,
2013-04-04 14:00:00,61.0,-99.9,-100.00,North,-999,-999.0,-999.0,-999,0.01,,,-99.99,,2013-04-04 21:00:00,
2013-04-04 14:33:00,61.0,-99.9,-100.00,North,-999,-999.0,-999.0,-999,0.01,,,-99.99,,2013-04-04 21:33:00,
2013-04-04 14:43:00,61.0,-99.9,-100.00,North,-999,-999.0,-999.0,-999,0.01,,,-99.99,,2013-04-04 21:43:00,
2013-04-04 14:53:00,61.0,-99.9,-100.00,North,-999,-999.0,-999.0,-999,0.01,,,-99.99,,2013-04-04 21:53:00,
2013-04-04 15:00:00,63.0,-99.9,-100.00,North,-999,-999.0,-999.0,-999,0.00,,,-99.99,,2013-04-04 22:00:00,
2013-04-04 15:34:00,63.0,-99.9,-100.00,North,-999,-999.0,-999.0,-999,0.00,,,-99.99,,2013-04-04 22:34:00,
2013-04-04 15:43:00,63.0,-99.9,-100.00,North,-999,-999.0,-999.0,-999,0.00,,,-99.99,,2013-04-04 22:43:00,
2013-04-04 15:53:00,63.0,-99.9,-100.00,North,-999,-999.0,-999.0,-999,0.00,,,-99.99,,2013-04-04 22:53:00,
2013-04-04 16:00:00,50.0,-99.9,-100.00,North,-999,-999.0,-999.0,-999,0.06,,,0.13,,2013-04-04 23:00:00,
2013-04-04 16:32:00,50.0,-99.9,-100.00,North,-999,-999.0,-999.0,-999,0.06,,,0.13,,2013-04-04 23:32:00,
2013-04-04 17:00:00,49.0,-99.9,-100.00,North,-999,-999.0,-999.0,-999,0.00,,,0.13,,2013-04-05 00:00:00,
2013-04-04 17:33:00,49.0,-99.9,-100.00,North,-999,-999.0,-999.0,-999,0.00,,,0.13,,2013-04-05 00:33:00,
2013-04-04 17:43:00,49.0,-99.9,-100.00,North,-999,-999.0,-999.0,-999,0.00,,,0.13,,2013-04-05 00:43:00,
2013-04-04 17:53:00,49.0,-99.9,-100.00,North,-999,-999.0,-999.0,-999,0.00,,,0.13,,2013-04-05 00:53:00,
2013-04-04 18:00:00,50.0,-99.9,-100.00,North,-999,-999.0,-999.0,-999,0.00,,,0.13,,2013-04-05 01:00:00,
2013-04-04 18:33:00,50.0,-99.9,-100.00,North,-999,-999.0,-999.0,-999,0.00,,,0.13,,2013-04-05 01:33:00,
2013-04-04 18:43:00,50.0,-99.9,-100.00,North,-999,-999.0,-999.0,-999,0.00,,,0.13,,2013-04-05 01:43:00,
2013-04-04 18:54:00,50.0,-99.9,-100.00,North,-999,-999.0,-999.0,-999,0.00,,,0.13,,2013-04-05 01:54:00,
2013-04-04 19:00:00,45.0,-99.9,-100.00,North,-999,-999.0,-999.0,-999,0.01,,,0.14,,2013-04-05 02:00:00,
2013-04-04 19:32:00,45.0,-99.9,-100.00,North,-999,-999.0,-999.0,-999,0.01,,,0.14,,2013-04-05 02:32:00,
2013-04-04 19:42:00,45.0,-99.9,-100.00,North,-999,-999.0,-999.0,-999,0.01,,,0.14,,2013-04-05 02:42:00,
2013-04-04 19:53:00,45.0,-99.9,-100.00,North,-999,-999.0,-999.0,-999,0.01,,,0.14,,2013-04-05 02:53:00,
2013-04-04 20:00:00,43.0,-99.9,-100.00,North,-999,-999.0,-999.0,-999,0.04,,,0.18,,2013-04-05 03:00:00,
2013-04-04 20:33:00,43.0,-99.9,-100.00,North,-999,-999.0,-999.0,-999,0.04,,,0.18,,2013-04-05 03:33:00,
2013-04-04 20:44:00,43.0,-99.9,-100.00,North,-999,-999.0,-999.0,-999,0.04,,,0.18,,2013-04-05 03:44:00,
2013-04-04 20:55:00,43.0,-99.9,-100.00,North,-999,-999.0,-999.0,-999,0.04,,,0.18,,2013-04-05 03:55:00,
2013-04-04 21:00:00,41.0,-99.9,-100.00,North,-999,-999.0,-999.0,-999,0.00,,,-99.99,,2013-04-05 04:00:00,
2013-04-04 21:33:00,41.0,-99.9,-100.00,North,-999,-999.0,-999.0,-999,0.00,,,-99.99,,2013-04-05 04:33:00,
2013-04-04 21:43:00,41.0,-99.9,-100.00,North,-999,-999.0,-999.0,-999,0.00,,,-99.99,,2013-04-05 04:43:00,
2013-04-04 21:53:00,41.0,-99.9,-100.00,North,-999,-999.0,-999.0,-999,0.00,,,-99.99,,2013-04-05 04:53:00,
2013-04-04 22:00:00,38.0,-99.9,-100.00,North,-999,-999.0,-999.0,-999,0.00,,,0.18,,2013-04-05 05:00:00,
2013-04-04 22:32:00,38.0,-99.9,-100.00,North,-999,-999.0,-999.0,-999,0.00,,,0.18,,2013-04-05 05:32:00,
2013-04-04 22:43:00,38.0,-99.9,-100.00,North,-999,-999.0,-999.0,-999,0.00,,,0.18,,2013-04-05 05:43:00,
2013-04-04 22:53:00,38.0,-99.9,-100.00,North,-999,-999.0,-999.0,-999,0.00,,,0.18,,2013-04-05 05:53:00,